AZA1287 LIMC-LIRN
Flight info
| Callsign | AZA1287 |
|---|---|
| Flight time | 1h 3m |
| Altitude | 37000 |
| Route | ROBAS DCT LOGDI DCT EKDIR DCT LOMED DCT GENGI DCT EVULI DCT ERIKA |
| Aircraft | MD82/M-SDFGIRWY/S |
Departure
| Time | 2026-05-06 17:37 |
|---|---|
| Airport | Milan Malpensa International Airport (LIMC) |
Arrival
| Time | 2026-05-06 18:40 |
|---|---|
| Airport | Naples International Airport (LIRN) |
| Time | Latitude | Longitude | Altitude | Speed | Heading |
|---|---|---|---|---|---|
| 2026-05-06 17:18 | 45.62237 | 8.71850 | 750 ft | 0 kts | 169° |
| 2026-05-06 17:24 | 45.62240 | 8.71849 | 749 ft | 3 kts | 169° |
| 2026-05-06 17:25 | 45.62261 | 8.71842 | 750 ft | 3 kts | 168° |
| 2026-05-06 17:25 | 45.62283 | 8.71836 | 751 ft | 3 kts | 168° |
| 2026-05-06 17:25 | 45.62302 | 8.71830 | 749 ft | 3 kts | 161° |
| 2026-05-06 17:25 | 45.62317 | 8.71818 | 748 ft | 3 kts | 120° |
| 2026-05-06 17:26 | 45.62321 | 8.71792 | 749 ft | 3 kts | 86° |
| 2026-05-06 17:26 | 45.62318 | 8.71765 | 751 ft | 1 kts | 79° |
| 2026-05-06 17:28 | 45.62325 | 8.71812 | 748 ft | 9 kts | 79° |
| 2026-05-06 17:28 | 45.62315 | 8.71909 | 751 ft | 10 kts | 137° |
| 2026-05-06 17:28 | 45.62228 | 8.71945 | 751 ft | 17 kts | 168° |
| 2026-05-06 17:28 | 45.62095 | 8.71983 | 753 ft | 21 kts | 169° |
| 2026-05-06 17:29 | 45.61958 | 8.72021 | 752 ft | 19 kts | 169° |
| 2026-05-06 17:29 | 45.61830 | 8.72056 | 749 ft | 18 kts | 169° |
| 2026-05-06 17:29 | 45.61710 | 8.72090 | 753 ft | 17 kts | 169° |
| 2026-05-06 17:29 | 45.61597 | 8.72121 | 750 ft | 16 kts | 169° |
| 2026-05-06 17:30 | 45.61488 | 8.72151 | 752 ft | 16 kts | 169° |
| 2026-05-06 17:30 | 45.61382 | 8.72180 | 753 ft | 16 kts | 169° |
| 2026-05-06 17:30 | 45.61276 | 8.72210 | 750 ft | 16 kts | 169° |
| 2026-05-06 17:30 | 45.61169 | 8.72239 | 749 ft | 16 kts | 169° |
| 2026-05-06 17:31 | 45.61062 | 8.72269 | 752 ft | 16 kts | 169° |
| 2026-05-06 17:31 | 45.60952 | 8.72299 | 754 ft | 16 kts | 169° |
| 2026-05-06 17:31 | 45.60839 | 8.72330 | 751 ft | 17 kts | 169° |
| 2026-05-06 17:31 | 45.60724 | 8.72363 | 753 ft | 17 kts | 165° |
| 2026-05-06 17:32 | 45.60642 | 8.72471 | 751 ft | 17 kts | 104° |
| 2026-05-06 17:32 | 45.60627 | 8.72640 | 751 ft | 17 kts | 95° |
| 2026-05-06 17:32 | 45.60614 | 8.72814 | 754 ft | 18 kts | 96° |
| 2026-05-06 17:32 | 45.60600 | 8.72991 | 754 ft | 18 kts | 96° |
| 2026-05-06 17:33 | 45.60593 | 8.73175 | 751 ft | 19 kts | 79° |
| 2026-05-06 17:33 | 45.60681 | 8.73296 | 753 ft | 18 kts | 22° |
| 2026-05-06 17:33 | 45.60801 | 8.73365 | 751 ft | 19 kts | 22° |
| 2026-05-06 17:33 | 45.60925 | 8.73398 | 752 ft | 18 kts | 354° |
| 2026-05-06 17:34 | 45.61050 | 8.73365 | 752 ft | 18 kts | 349° |
| 2026-05-06 17:34 | 45.61175 | 8.73330 | 754 ft | 18 kts | 349° |
| 2026-05-06 17:34 | 45.61301 | 8.73295 | 753 ft | 18 kts | 349° |
| 2026-05-06 17:34 | 45.61424 | 8.73261 | 752 ft | 18 kts | 349° |
| 2026-05-06 17:35 | 45.61549 | 8.73226 | 752 ft | 15 kts | 349° |
| 2026-05-06 17:35 | 45.61610 | 8.73258 | 752 ft | 10 kts | 54° |
| 2026-05-06 17:35 | 45.61628 | 8.73354 | 753 ft | 11 kts | 87° |
| 2026-05-06 17:36 | 45.61586 | 8.73577 | 750 ft | 14 kts | 97° |
| 2026-05-06 17:36 | 45.61626 | 8.73714 | 746 ft | 17 kts | 22° |
| 2026-05-06 17:36 | 45.61781 | 8.73688 | 746 ft | 37 kts | 350° |
| 2026-05-06 17:36 | 45.62051 | 8.73616 | 744 ft | 83 kts | 348° |
| 2026-05-06 17:37 | 45.62850 | 8.73392 | 746 ft | 148 kts | 349° |
| 2026-05-06 17:37 | 45.63966 | 8.73089 | 1164 ft | 169 kts | 348° |
| 2026-05-06 17:37 | 45.65110 | 8.72876 | 2039 ft | 169 kts | 2° |
| 2026-05-06 17:37 | 45.66610 | 8.73709 | 2596 ft | 196 kts | 45° |
| 2026-05-06 17:38 | 45.67236 | 8.74594 | 3292 ft | 186 kts | 46° |
| 2026-05-06 17:38 | 45.68159 | 8.75942 | 3984 ft | 197 kts | 59° |
| 2026-05-06 17:38 | 45.68452 | 8.77904 | 4255 ft | 221 kts | 108° |
| 2026-05-06 17:38 | 45.67708 | 8.79908 | 4783 ft | 234 kts | 126° |
| 2026-05-06 17:39 | 45.66765 | 8.81907 | 5306 ft | 253 kts | 125° |
| 2026-05-06 17:39 | 45.65735 | 8.84096 | 5668 ft | 277 kts | 126° |
| 2026-05-06 17:39 | 45.64588 | 8.86442 | 6039 ft | 298 kts | 127° |
| 2026-05-06 17:39 | 45.63335 | 8.88921 | 6384 ft | 317 kts | 128° |
| 2026-05-06 17:40 | 45.62029 | 8.91477 | 6886 ft | 326 kts | 128° |
| 2026-05-06 17:40 | 45.60691 | 8.94117 | 7596 ft | 330 kts | 128° |
| 2026-05-06 17:40 | 45.59342 | 8.96800 | 8276 ft | 335 kts | 128° |
| 2026-05-06 17:40 | 45.57981 | 8.99526 | 8984 ft | 339 kts | 128° |
| 2026-05-06 17:41 | 45.56619 | 9.02282 | 9751 ft | 340 kts | 128° |
| 2026-05-06 17:41 | 45.55297 | 9.05001 | 10368 ft | 344 kts | 127° |
| 2026-05-06 17:41 | 45.53936 | 9.07834 | 11009 ft | 348 kts | 127° |
| 2026-05-06 17:41 | 45.52565 | 9.10701 | 11667 ft | 351 kts | 127° |
| 2026-05-06 17:42 | 45.51182 | 9.13601 | 12320 ft | 356 kts | 127° |
| 2026-05-06 17:42 | 45.49785 | 9.16535 | 13005 ft | 359 kts | 127° |
| 2026-05-06 17:42 | 45.48380 | 9.19496 | 13688 ft | 362 kts | 127° |
| 2026-05-06 17:42 | 45.46983 | 9.22449 | 14256 ft | 366 kts | 127° |
| 2026-05-06 17:43 | 45.45539 | 9.25513 | 14835 ft | 370 kts | 127° |
| 2026-05-06 17:43 | 45.44122 | 9.28530 | 15435 ft | 372 kts | 127° |
| 2026-05-06 17:43 | 45.42680 | 9.31614 | 16022 ft | 375 kts | 127° |
| 2026-05-06 17:43 | 45.41228 | 9.34723 | 16552 ft | 379 kts | 128° |
| 2026-05-06 17:44 | 45.39586 | 9.37680 | 17131 ft | 382 kts | 136° |
| 2026-05-06 17:44 | 45.37774 | 9.40456 | 17658 ft | 385 kts | 138° |
| 2026-05-06 17:44 | 45.35914 | 9.43233 | 18156 ft | 390 kts | 139° |
| 2026-05-06 17:44 | 45.34029 | 9.46029 | 18628 ft | 393 kts | 139° |
| 2026-05-06 17:45 | 45.32132 | 9.48842 | 19144 ft | 395 kts | 139° |
| 2026-05-06 17:45 | 45.30229 | 9.51679 | 19658 ft | 397 kts | 139° |
| 2026-05-06 17:45 | 45.28326 | 9.54540 | 20116 ft | 401 kts | 139° |
| 2026-05-06 17:45 | 45.26412 | 9.57445 | 20580 ft | 404 kts | 139° |
| 2026-05-06 17:46 | 45.24491 | 9.60383 | 21059 ft | 407 kts | 139° |
| 2026-05-06 17:46 | 45.22566 | 9.63354 | 21542 ft | 410 kts | 139° |
| 2026-05-06 17:46 | 45.20638 | 9.66364 | 22001 ft | 413 kts | 139° |
| 2026-05-06 17:46 | 45.18734 | 9.69367 | 22464 ft | 416 kts | 139° |
| 2026-05-06 17:47 | 45.16804 | 9.72437 | 22964 ft | 419 kts | 139° |
| 2026-05-06 17:47 | 45.14868 | 9.75540 | 23448 ft | 421 kts | 139° |
| 2026-05-06 17:47 | 45.12930 | 9.78666 | 23847 ft | 424 kts | 139° |
| 2026-05-06 17:47 | 45.10985 | 9.81818 | 24251 ft | 426 kts | 139° |
| 2026-05-06 17:48 | 45.09037 | 9.84987 | 24660 ft | 428 kts | 139° |
| 2026-05-06 17:48 | 45.07118 | 9.88124 | 25078 ft | 429 kts | 139° |
| 2026-05-06 17:48 | 45.05188 | 9.91290 | 25460 ft | 432 kts | 139° |
| 2026-05-06 17:48 | 45.03225 | 9.94522 | 25855 ft | 434 kts | 139° |
| 2026-05-06 17:49 | 45.01252 | 9.97783 | 26258 ft | 436 kts | 139° |
| 2026-05-06 17:49 | 44.99275 | 10.01051 | 26610 ft | 439 kts | 139° |
| 2026-05-06 17:49 | 44.97268 | 10.04342 | 26964 ft | 441 kts | 141° |
| 2026-05-06 17:49 | 44.95170 | 10.07401 | 27373 ft | 438 kts | 144° |
| 2026-05-06 17:50 | 44.92971 | 10.10375 | 27772 ft | 439 kts | 145° |
| 2026-05-06 17:50 | 44.90745 | 10.13332 | 28161 ft | 440 kts | 146° |
| 2026-05-06 17:50 | 44.88507 | 10.16291 | 28552 ft | 442 kts | 146° |
| 2026-05-06 17:50 | 44.86257 | 10.19260 | 28979 ft | 443 kts | 146° |
| 2026-05-06 17:51 | 44.84017 | 10.22222 | 29527 ft | 441 kts | 146° |
| 2026-05-06 17:51 | 44.81795 | 10.25177 | 30088 ft | 438 kts | 146° |
| 2026-05-06 17:51 | 44.79593 | 10.28119 | 30593 ft | 435 kts | 146° |
| 2026-05-06 17:51 | 44.77405 | 10.31048 | 30957 ft | 434 kts | 146° |
| 2026-05-06 17:52 | 44.75210 | 10.33978 | 31342 ft | 435 kts | 146° |
| 2026-05-06 17:52 | 44.73017 | 10.36904 | 31749 ft | 434 kts | 146° |
| 2026-05-06 17:52 | 44.70838 | 10.39819 | 32256 ft | 430 kts | 146° |
| 2026-05-06 17:52 | 44.68697 | 10.42714 | 32849 ft | 424 kts | 146° |
| 2026-05-06 17:53 | 44.66589 | 10.45585 | 33323 ft | 421 kts | 146° |
| 2026-05-06 17:53 | 44.64491 | 10.48454 | 33690 ft | 420 kts | 146° |
| 2026-05-06 17:53 | 44.62426 | 10.51282 | 33992 ft | 419 kts | 146° |
| 2026-05-06 17:53 | 44.60331 | 10.54150 | 34209 ft | 420 kts | 146° |
| 2026-05-06 17:54 | 44.58235 | 10.57011 | 34409 ft | 421 kts | 146° |
| 2026-05-06 17:54 | 44.56126 | 10.59877 | 34568 ft | 423 kts | 145° |
| 2026-05-06 17:54 | 44.53994 | 10.62730 | 34700 ft | 425 kts | 146° |
| 2026-05-06 17:54 | 44.51840 | 10.65582 | 34868 ft | 426 kts | 146° |
| 2026-05-06 17:55 | 44.49678 | 10.68423 | 35154 ft | 426 kts | 146° |
| 2026-05-06 17:55 | 44.47524 | 10.71254 | 35498 ft | 423 kts | 146° |
| 2026-05-06 17:55 | 44.45392 | 10.74067 | 35803 ft | 421 kts | 146° |
| 2026-05-06 17:55 | 44.43256 | 10.76879 | 35961 ft | 422 kts | 146° |
| 2026-05-06 17:56 | 44.41112 | 10.79705 | 36117 ft | 423 kts | 146° |
| 2026-05-06 17:56 | 44.38964 | 10.82527 | 36291 ft | 424 kts | 146° |
| 2026-05-06 17:56 | 44.36809 | 10.85351 | 36483 ft | 424 kts | 146° |
| 2026-05-06 17:56 | 44.34682 | 10.88134 | 36678 ft | 424 kts | 146° |
| 2026-05-06 17:57 | 44.32524 | 10.90955 | 36820 ft | 426 kts | 146° |
| 2026-05-06 17:57 | 44.30350 | 10.93786 | 36893 ft | 429 kts | 146° |
| 2026-05-06 17:57 | 44.25934 | 10.99512 | 36937 ft | 435 kts | 146° |
| 2026-05-06 17:58 | 44.21485 | 11.05262 | 36939 ft | 434 kts | 146° |
| 2026-05-06 17:58 | 44.17087 | 11.10958 | 36945 ft | 430 kts | 146° |
| 2026-05-06 17:59 | 44.12739 | 11.16596 | 36944 ft | 429 kts | 146° |
| 2026-05-06 17:59 | 44.08348 | 11.22279 | 36942 ft | 431 kts | 146° |
| 2026-05-06 18:00 | 44.03938 | 11.27959 | 36921 ft | 432 kts | 146° |
| 2026-05-06 18:00 | 43.99536 | 11.33571 | 36930 ft | 432 kts | 146° |
| 2026-05-06 18:01 | 43.95334 | 11.38941 | 36937 ft | 433 kts | 146° |
| 2026-05-06 18:01 | 43.90919 | 11.44585 | 36936 ft | 433 kts | 146° |
| 2026-05-06 18:02 | 43.86775 | 11.49871 | 36942 ft | 431 kts | 146° |
| 2026-05-06 18:02 | 43.82348 | 11.55503 | 36917 ft | 431 kts | 146° |
| 2026-05-06 18:03 | 43.77873 | 11.61111 | 36938 ft | 436 kts | 146° |
| 2026-05-06 18:03 | 43.73332 | 11.66760 | 36935 ft | 439 kts | 146° |
| 2026-05-06 18:04 | 43.68795 | 11.72395 | 36931 ft | 438 kts | 146° |
| 2026-05-06 18:04 | 43.64282 | 11.77985 | 36936 ft | 439 kts | 146° |
| 2026-05-06 18:05 | 43.59727 | 11.83609 | 36940 ft | 439 kts | 146° |
| 2026-05-06 18:05 | 43.55157 | 11.89214 | 36943 ft | 440 kts | 146° |
| 2026-05-06 18:06 | 43.50571 | 11.94825 | 36948 ft | 441 kts | 146° |
| 2026-05-06 18:06 | 43.45969 | 12.00444 | 36950 ft | 442 kts | 146° |
| 2026-05-06 18:07 | 43.41366 | 12.06053 | 36923 ft | 439 kts | 146° |
| 2026-05-06 18:07 | 43.36789 | 12.11580 | 36938 ft | 437 kts | 146° |
| 2026-05-06 18:08 | 43.32235 | 12.17051 | 36948 ft | 439 kts | 146° |
| 2026-05-06 18:08 | 43.27628 | 12.22597 | 36959 ft | 441 kts | 146° |
| 2026-05-06 18:09 | 43.23007 | 12.28131 | 36953 ft | 439 kts | 146° |
| 2026-05-06 18:09 | 43.18418 | 12.33635 | 36964 ft | 438 kts | 146° |
| 2026-05-06 18:10 | 43.13828 | 12.39146 | 36950 ft | 438 kts | 146° |
| 2026-05-06 18:10 | 43.09297 | 12.44627 | 36947 ft | 437 kts | 146° |
| 2026-05-06 18:11 | 43.04750 | 12.50147 | 36958 ft | 436 kts | 146° |
| 2026-05-06 18:11 | 43.00203 | 12.55669 | 36960 ft | 437 kts | 146° |
| 2026-05-06 18:12 | 42.95651 | 12.61190 | 36961 ft | 437 kts | 146° |
| 2026-05-06 18:12 | 42.91101 | 12.66705 | 36958 ft | 438 kts | 146° |
| 2026-05-06 18:13 | 42.86546 | 12.72230 | 36969 ft | 438 kts | 146° |
| 2026-05-06 18:13 | 42.81991 | 12.77749 | 36958 ft | 437 kts | 146° |
| 2026-05-06 18:14 | 42.77444 | 12.83235 | 36981 ft | 436 kts | 146° |
| 2026-05-06 18:14 | 42.72896 | 12.88706 | 36988 ft | 436 kts | 146° |
| 2026-05-06 18:15 | 42.68351 | 12.94164 | 36980 ft | 436 kts | 146° |
| 2026-05-06 18:15 | 42.63844 | 12.99579 | 36998 ft | 435 kts | 146° |
| 2026-05-06 18:16 | 42.59310 | 13.05019 | 37002 ft | 434 kts | 146° |
| 2026-05-06 18:16 | 42.54772 | 13.10460 | 37001 ft | 435 kts | 146° |
| 2026-05-06 18:17 | 42.50230 | 13.15911 | 36984 ft | 436 kts | 146° |
| 2026-05-06 18:17 | 42.45680 | 13.21379 | 36963 ft | 438 kts | 146° |
| 2026-05-06 18:18 | 42.41145 | 13.26816 | 36988 ft | 439 kts | 146° |
| 2026-05-06 18:18 | 42.36566 | 13.32302 | 36994 ft | 439 kts | 146° |
| 2026-05-06 18:19 | 42.32038 | 13.37722 | 36985 ft | 437 kts | 146° |
| 2026-05-06 18:19 | 42.27565 | 13.43296 | 36984 ft | 438 kts | 143° |
| 2026-05-06 18:20 | 42.23247 | 13.49127 | 36987 ft | 439 kts | 142° |
| 2026-05-06 18:20 | 42.18909 | 13.55034 | 36977 ft | 446 kts | 142° |
| 2026-05-06 18:21 | 42.16715 | 13.58018 | 36710 ft | 452 kts | 142° |
| 2026-05-06 18:21 | 42.14489 | 13.61034 | 36381 ft | 454 kts | 142° |
| 2026-05-06 18:21 | 42.12282 | 13.64034 | 36109 ft | 450 kts | 142° |
| 2026-05-06 18:21 | 42.10103 | 13.66995 | 35690 ft | 449 kts | 142° |
| 2026-05-06 18:22 | 42.07910 | 13.69981 | 35187 ft | 448 kts | 142° |
| 2026-05-06 18:22 | 42.05728 | 13.72969 | 34663 ft | 448 kts | 142° |
| 2026-05-06 18:22 | 42.03544 | 13.75969 | 34119 ft | 449 kts | 142° |
| 2026-05-06 18:22 | 42.01357 | 13.78985 | 33457 ft | 450 kts | 142° |
| 2026-05-06 18:23 | 41.99155 | 13.82003 | 32849 ft | 452 kts | 142° |
| 2026-05-06 18:23 | 41.97687 | 13.84003 | 32458 ft | 453 kts | 142° |
| 2026-05-06 18:23 | 41.95464 | 13.87013 | 31844 ft | 455 kts | 142° |
| 2026-05-06 18:23 | 41.93219 | 13.90016 | 31265 ft | 457 kts | 142° |
| 2026-05-06 18:24 | 41.90219 | 13.93997 | 30521 ft | 458 kts | 142° |
| 2026-05-06 18:24 | 41.88677 | 13.96030 | 30142 ft | 459 kts | 142° |
| 2026-05-06 18:24 | 41.86419 | 13.98995 | 29528 ft | 459 kts | 142° |
| 2026-05-06 18:24 | 41.84125 | 14.01989 | 28933 ft | 461 kts | 142° |
| 2026-05-06 18:25 | 41.81817 | 14.04987 | 28365 ft | 460 kts | 142° |
| 2026-05-06 18:25 | 41.79490 | 14.07967 | 27773 ft | 462 kts | 143° |
| 2026-05-06 18:25 | 41.77081 | 14.10829 | 27209 ft | 464 kts | 145° |
| 2026-05-06 18:25 | 41.74605 | 14.13636 | 26622 ft | 466 kts | 146° |
| 2026-05-06 18:26 | 41.72118 | 14.16403 | 26017 ft | 462 kts | 146° |
| 2026-05-06 18:26 | 41.69652 | 14.19113 | 25421 ft | 457 kts | 146° |
| 2026-05-06 18:26 | 41.67201 | 14.21795 | 24771 ft | 452 kts | 145° |
| 2026-05-06 18:26 | 41.64768 | 14.24428 | 24160 ft | 448 kts | 146° |
| 2026-05-06 18:27 | 41.62341 | 14.27024 | 23543 ft | 446 kts | 146° |
| 2026-05-06 18:27 | 41.59957 | 14.29557 | 22826 ft | 441 kts | 146° |
| 2026-05-06 18:27 | 41.57567 | 14.32103 | 22163 ft | 434 kts | 146° |
| 2026-05-06 18:27 | 41.55225 | 14.34611 | 21554 ft | 428 kts | 146° |
| 2026-05-06 18:28 | 41.52920 | 14.37092 | 20998 ft | 424 kts | 146° |
| 2026-05-06 18:28 | 41.50638 | 14.39554 | 20445 ft | 420 kts | 146° |
| 2026-05-06 18:28 | 41.48381 | 14.41998 | 19890 ft | 415 kts | 147° |
| 2026-05-06 18:28 | 41.46080 | 14.44276 | 19340 ft | 408 kts | 151° |
| 2026-05-06 18:29 | 41.43724 | 14.46377 | 18806 ft | 405 kts | 152° |
| 2026-05-06 18:29 | 41.41372 | 14.48415 | 18231 ft | 400 kts | 153° |
| 2026-05-06 18:29 | 41.39078 | 14.50384 | 17584 ft | 395 kts | 153° |
| 2026-05-06 18:29 | 41.36740 | 14.52353 | 17014 ft | 390 kts | 153° |
| 2026-05-06 18:30 | 41.34474 | 14.54217 | 16502 ft | 387 kts | 153° |
| 2026-05-06 18:30 | 41.32176 | 14.56064 | 16019 ft | 385 kts | 153° |
| 2026-05-06 18:30 | 41.29878 | 14.57873 | 15601 ft | 383 kts | 153° |
| 2026-05-06 18:30 | 41.27582 | 14.59649 | 15268 ft | 380 kts | 153° |
| 2026-05-06 18:31 | 41.25272 | 14.61407 | 14541 ft | 385 kts | 153° |
| 2026-05-06 18:31 | 41.22912 | 14.63172 | 13324 ft | 391 kts | 153° |
| 2026-05-06 18:31 | 41.20575 | 14.64879 | 12321 ft | 374 kts | 153° |
| 2026-05-06 18:31 | 41.18355 | 14.66468 | 11648 ft | 351 kts | 153° |
| 2026-05-06 18:32 | 41.16225 | 14.67980 | 11122 ft | 345 kts | 153° |
| 2026-05-06 18:32 | 41.14138 | 14.69464 | 10812 ft | 333 kts | 153° |
| 2026-05-06 18:32 | 41.12181 | 14.70852 | 10448 ft | 308 kts | 153° |
| 2026-05-06 18:32 | 41.10252 | 14.71829 | 10011 ft | 289 kts | 176° |
| 2026-05-06 18:33 | 41.08366 | 14.71338 | 9569 ft | 274 kts | 212° |
| 2026-05-06 18:33 | 41.07042 | 14.69621 | 9117 ft | 264 kts | 236° |
| 2026-05-06 18:33 | 41.06267 | 14.67458 | 8656 ft | 257 kts | 250° |
| 2026-05-06 18:33 | 41.05685 | 14.65265 | 8173 ft | 247 kts | 241° |
| 2026-05-06 18:34 | 41.04781 | 14.63376 | 7732 ft | 239 kts | 233° |
| 2026-05-06 18:34 | 41.03866 | 14.61558 | 7294 ft | 234 kts | 236° |
| 2026-05-06 18:34 | 41.03017 | 14.59744 | 6860 ft | 227 kts | 237° |
| 2026-05-06 18:34 | 41.02209 | 14.58011 | 6419 ft | 216 kts | 236° |
| 2026-05-06 18:35 | 41.01431 | 14.56370 | 5888 ft | 212 kts | 236° |
| 2026-05-06 18:35 | 41.00646 | 14.54723 | 5314 ft | 211 kts | 236° |
| 2026-05-06 18:35 | 40.99870 | 14.53070 | 4828 ft | 209 kts | 237° |
| 2026-05-06 18:35 | 40.99140 | 14.51500 | 4550 ft | 191 kts | 237° |
| 2026-05-06 18:36 | 40.98463 | 14.50053 | 4269 ft | 179 kts | 236° |
| 2026-05-06 18:36 | 40.97826 | 14.48722 | 4098 ft | 163 kts | 236° |
| 2026-05-06 18:36 | 40.97245 | 14.47479 | 4042 ft | 160 kts | 237° |
| 2026-05-06 18:36 | 40.96633 | 14.46155 | 3749 ft | 178 kts | 238° |
| 2026-05-06 18:37 | 40.95975 | 14.44727 | 3145 ft | 184 kts | 239° |
| 2026-05-06 18:37 | 40.95305 | 14.43331 | 2809 ft | 176 kts | 239° |
| 2026-05-06 18:37 | 40.94674 | 14.41966 | 2502 ft | 170 kts | 239° |
| 2026-05-06 18:37 | 40.94047 | 14.40645 | 2242 ft | 168 kts | 238° |
| 2026-05-06 18:38 | 40.93445 | 14.39374 | 2063 ft | 156 kts | 240° |
| 2026-05-06 18:38 | 40.92898 | 14.38195 | 1844 ft | 147 kts | 238° |
| 2026-05-06 18:38 | 40.92373 | 14.37078 | 1620 ft | 138 kts | 239° |
| 2026-05-06 18:38 | 40.91869 | 14.36007 | 1398 ft | 134 kts | 238° |
| 2026-05-06 18:39 | 40.91376 | 14.34961 | 1183 ft | 135 kts | 239° |
| 2026-05-06 18:39 | 40.90897 | 14.33931 | 958 ft | 131 kts | 236° |
| 2026-05-06 18:39 | 40.90422 | 14.32911 | 761 ft | 129 kts | 237° |
| 2026-05-06 18:40 | 40.89459 | 14.30889 | 414 ft | 131 kts | 234° |
| 2026-05-06 18:40 | 40.88997 | 14.29897 | 250 ft | 128 kts | 234° |
| 2026-05-06 18:40 | 40.88614 | 14.29100 | 267 ft | 75 kts | 237° |
| 2026-05-06 18:40 | 40.88403 | 14.28658 | 278 ft | 44 kts | 237° |
| 2026-05-06 18:41 | 40.88265 | 14.28448 | 283 ft | 26 kts | 218° |
| 2026-05-06 18:41 | 40.88133 | 14.28353 | 287 ft | 16 kts | 207° |
| 2026-05-06 18:41 | 40.88076 | 14.28317 | 288 ft | 5 kts | 208° |
| 2026-05-06 18:41 | 40.88060 | 14.28280 | 291 ft | 8 kts | 253° |
| 2026-05-06 18:42 | 40.88049 | 14.28226 | 293 ft | 6 kts | 255° |
| 2026-05-06 18:42 | 40.88022 | 14.28149 | 294 ft | 12 kts | 224° |
| 2026-05-06 18:42 | 40.87961 | 14.28177 | 293 ft | 12 kts | 103° |
| 2026-05-06 18:42 | 40.87947 | 14.28286 | 291 ft | 12 kts | 96° |
| 2026-05-06 18:43 | 40.87956 | 14.28337 | 294 ft | 3 kts | 21° |
| 2026-05-06 18:43 | 40.87981 | 14.28332 | 292 ft | 4 kts | 342° |
| 2026-05-06 18:43 | 40.88002 | 14.28319 | 289 ft | 1 kts | 335° |
| 2026-05-06 18:43 | 40.88005 | 14.28317 | 289 ft | 0 kts | 334° |